sensor_id;sensor_type;location;lat;lon;timestamp;pressure;altitude;pressure_sealevel;temperature
68743;BMP180;55725;42.758;26.702;2022-12-18T00:01:36;99784.00;;;11.80
68743;BMP180;55725;42.758;26.702;2022-12-18T00:03:17;99791.00;;;11.80
68743;BMP180;55725;42.758;26.702;2022-12-18T00:04:57;99793.00;;;11.90
68743;BMP180;55725;42.758;26.702;2022-12-18T00:06:37;99788.00;;;11.90
68743;BMP180;55725;42.758;26.702;2022-12-18T00:08:18;99782.00;;;12.00
68743;BMP180;55725;42.758;26.702;2022-12-18T00:09:58;99792.00;;;12.00
68743;BMP180;55725;42.758;26.702;2022-12-18T00:11:39;99785.00;;;12.00
68743;BMP180;55725;42.758;26.702;2022-12-18T00:13:19;99784.00;;;11.90
68743;BMP180;55725;42.758;26.702;2022-12-18T00:14:59;99798.00;;;11.90
68743;BMP180;55725;42.758;26.702;2022-12-18T00:16:40;99792.00;;;11.70
68743;BMP180;55725;42.758;26.702;2022-12-18T00:18:22;99794.00;;;11.80
68743;BMP180;55725;42.758;26.702;2022-12-18T00:20:03;99795.00;;;11.70
68743;BMP180;55725;42.758;26.702;2022-12-18T00:21:43;99807.00;;;11.70
68743;BMP180;55725;42.758;26.702;2022-12-18T00:23:24;99798.00;;;11.70
68743;BMP180;55725;42.758;26.702;2022-12-18T00:25:04;99792.00;;;11.70
68743;BMP180;55725;42.758;26.702;2022-12-18T00:26:44;99812.00;;;11.60
68743;BMP180;55725;42.758;26.702;2022-12-18T00:28:24;99817.00;;;11.60
68743;BMP180;55725;42.758;26.702;2022-12-18T00:30:05;99820.00;;;11.60
68743;BMP180;55725;42.758;26.702;2022-12-18T00:31:45;99802.00;;;11.60
68743;BMP180;55725;42.758;26.702;2022-12-18T00:33:26;99797.00;;;11.60
68743;BMP180;55725;42.758;26.702;2022-12-18T00:35:06;99801.00;;;11.70
68743;BMP180;55725;42.758;26.702;2022-12-18T00:36:47;99800.00;;;11.70
68743;BMP180;55725;42.758;26.702;2022-12-18T00:38:27;99810.00;;;11.80
68743;BMP180;55725;42.758;26.702;2022-12-18T00:40:08;99818.00;;;11.70
68743;BMP180;55725;42.758;26.702;2022-12-18T00:41:48;99813.00;;;11.70
68743;BMP180;55725;42.758;26.702;2022-12-18T00:43:47;99812.00;;;11.70
68743;BMP180;55725;42.758;26.702;2022-12-18T00:45:28;99825.00;;;11.60
68743;BMP180;55725;42.758;26.702;2022-12-18T00:47:08;99818.00;;;11.70
68743;BMP180;55725;42.758;26.702;2022-12-18T00:48:49;99830.00;;;11.70
68743;BMP180;55725;42.758;26.702;2022-12-18T00:50:29;99820.00;;;11.70
68743;BMP180;55725;42.758;26.702;2022-12-18T00:52:09;99824.00;;;11.70
68743;BMP180;55725;42.758;26.702;2022-12-18T00:53:50;99830.00;;;11.70
68743;BMP180;55725;42.758;26.702;2022-12-18T00:55:30;99820.00;;;11.60
68743;BMP180;55725;42.758;26.702;2022-12-18T00:57:11;99841.00;;;11.70
68743;BMP180;55725;42.758;26.702;2022-12-18T00:58:51;99836.00;;;11.60
68743;BMP180;55725;42.758;26.702;2022-12-18T01:00:31;99826.00;;;11.60
68743;BMP180;55725;42.758;26.702;2022-12-18T01:02:11;99829.00;;;11.60
68743;BMP180;55725;42.758;26.702;2022-12-18T01:03:52;99819.00;;;11.60
68743;BMP180;55725;42.758;26.702;2022-12-18T01:05:32;99821.00;;;11.60
68743;BMP180;55725;42.758;26.702;2022-12-18T01:07:13;99811.00;;;11.60
68743;BMP180;55725;42.758;26.702;2022-12-18T01:08:53;99817.00;;;11.60
68743;BMP180;55725;42.758;26.702;2022-12-18T01:10:33;99813.00;;;11.60
68743;BMP180;55725;42.758;26.702;2022-12-18T01:12:14;99804.00;;;11.60
68743;BMP180;55725;42.758;26.702;2022-12-18T01:13:54;99811.00;;;11.60
68743;BMP180;55725;42.758;26.702;2022-12-18T01:15:34;99809.00;;;11.60
68743;BMP180;55725;42.758;26.702;2022-12-18T01:17:15;99808.00;;;11.60
68743;BMP180;55725;42.758;26.702;2022-12-18T01:18:55;99806.00;;;11.60
68743;BMP180;55725;42.758;26.702;2022-12-18T01:20:35;99812.00;;;11.60
68743;BMP180;55725;42.758;26.702;2022-12-18T01:22:17;99812.00;;;11.50
68743;BMP180;55725;42.758;26.702;2022-12-18T01:23:58;99819.00;;;11.60
68743;BMP180;55725;42.758;26.702;2022-12-18T01:25:38;99813.00;;;11.60
68743;BMP180;55725;42.758;26.702;2022-12-18T01:27:18;99826.00;;;11.50
68743;BMP180;55725;42.758;26.702;2022-12-18T01:28:59;99830.00;;;11.50
68743;BMP180;55725;42.758;26.702;2022-12-18T01:30:39;99826.00;;;11.50
68743;BMP180;55725;42.758;26.702;2022-12-18T01:32:19;99835.00;;;11.50
68743;BMP180;55725;42.758;26.702;2022-12-18T01:34:00;99841.00;;;11.50
68743;BMP180;55725;42.758;26.702;2022-12-18T01:35:43;99846.00;;;11.50
68743;BMP180;55725;42.758;26.702;2022-12-18T01:37:23;99851.00;;;11.50
68743;BMP180;55725;42.758;26.702;2022-12-18T01:39:05;99852.00;;;11.50
68743;BMP180;55725;42.758;26.702;2022-12-18T01:40:46;99868.00;;;11.50
68743;BMP180;55725;42.758;26.702;2022-12-18T01:42:26;99854.00;;;11.50
68743;BMP180;55725;42.758;26.702;2022-12-18T01:44:46;99875.00;;;11.50
68743;BMP180;55725;42.758;26.702;2022-12-18T01:46:06;99890.00;;;11.50
68743;BMP180;55725;42.758;26.702;2022-12-18T01:49:30;99876.00;;;11.30
68743;BMP180;55725;42.758;26.702;2022-12-18T01:51:10;99884.00;;;11.30
68743;BMP180;55725;42.758;26.702;2022-12-18T01:52:53;99881.00;;;11.10
68743;BMP180;55725;42.758;26.702;2022-12-18T01:54:33;99874.00;;;11.10
68743;BMP180;55725;42.758;26.702;2022-12-18T01:56:17;99879.00;;;11.00
68743;BMP180;55725;42.758;26.702;2022-12-18T01:57:59;99883.00;;;10.90
68743;BMP180;55725;42.758;26.702;2022-12-18T01:59:41;99874.00;;;11.00
68743;BMP180;55725;42.758;26.702;2022-12-18T02:01:23;99891.00;;;11.00
68743;BMP180;55725;42.758;26.702;2022-12-18T02:03:03;99881.00;;;10.90
68743;BMP180;55725;42.758;26.702;2022-12-18T02:04:44;99881.00;;;10.90
68743;BMP180;55725;42.758;26.702;2022-12-18T02:06:29;99869.00;;;10.90
68743;BMP180;55725;42.758;26.702;2022-12-18T02:10:03;99867.00;;;10.90
68743;BMP180;55725;42.758;26.702;2022-12-18T02:11:51;99876.00;;;10.90
68743;BMP180;55725;42.758;26.702;2022-12-18T02:13:39;99867.00;;;10.90
68743;BMP180;55725;42.758;26.702;2022-12-18T02:21:12;99843.00;;;11.00
68743;BMP180;55725;42.758;26.702;2022-12-18T02:26:47;99841.00;;;10.80
68743;BMP180;55725;42.758;26.702;2022-12-18T02:28:30;99852.00;;;10.80
68743;BMP180;55725;42.758;26.702;2022-12-18T02:30:12;99839.00;;;10.80
68743;BMP180;55725;42.758;26.702;2022-12-18T02:31:53;99833.00;;;10.80
68743;BMP180;55725;42.758;26.702;2022-12-18T02:33:34;99843.00;;;10.80
68743;BMP180;55725;42.758;26.702;2022-12-18T02:35:25;99832.00;;;10.90
68743;BMP180;55725;42.758;26.702;2022-12-18T02:37:09;99824.00;;;10.90
68743;BMP180;55725;42.758;26.702;2022-12-18T02:38:51;99833.00;;;10.80
68743;BMP180;55725;42.758;26.702;2022-12-18T02:40:32;99826.00;;;10.80
68743;BMP180;55725;42.758;26.702;2022-12-18T02:42:12;99827.00;;;10.70
68743;BMP180;55725;42.758;26.702;2022-12-18T02:43:55;99824.00;;;10.70
68743;BMP180;55725;42.758;26.702;2022-12-18T02:45:45;99829.00;;;10.60
68743;BMP180;55725;42.758;26.702;2022-12-18T02:47:28;99841.00;;;10.60
68743;BMP180;55725;42.758;26.702;2022-12-18T02:49:31;99837.00;;;10.60
68743;BMP180;55725;42.758;26.702;2022-12-18T02:59:15;99837.00;;;10.50
68743;BMP180;55725;42.758;26.702;2022-12-18T03:01:19;99840.00;;;10.50
68743;BMP180;55725;42.758;26.702;2022-12-18T03:03:14;99837.00;;;10.50
68743;BMP180;55725;42.758;26.702;2022-12-18T03:06:48;99830.00;;;10.40
68743;BMP180;55725;42.758;26.702;2022-12-18T03:08:30;99827.00;;;10.50
68743;BMP180;55725;42.758;26.702;2022-12-18T03:10:12;99823.00;;;10.50
68743;BMP180;55725;42.758;26.702;2022-12-18T03:11:54;99833.00;;;10.40
68743;BMP180;55725;42.758;26.702;2022-12-18T03:13:54;99826.00;;;10.40
68743;BMP180;55725;42.758;26.702;2022-12-18T03:15:37;99824.00;;;10.50
68743;BMP180;55725;42.758;26.702;2022-12-18T03:17:19;99813.00;;;10.50
68743;BMP180;55725;42.758;26.702;2022-12-18T03:19:01;99811.00;;;10.40
68743;BMP180;55725;42.758;26.702;2022-12-18T03:20:43;99807.00;;;10.40
68743;BMP180;55725;42.758;26.702;2022-12-18T03:22:24;99818.00;;;10.40
68743;BMP180;55725;42.758;26.702;2022-12-18T03:24:07;99817.00;;;10.30
68743;BMP180;55725;42.758;26.702;2022-12-18T03:25:48;99830.00;;;10.40
68743;BMP180;55725;42.758;26.702;2022-12-18T03:27:31;99831.00;;;10.40
68743;BMP180;55725;42.758;26.702;2022-12-18T03:29:17;99845.00;;;10.50
68743;BMP180;55725;42.758;26.702;2022-12-18T03:30:59;99860.00;;;10.50
68743;BMP180;55725;42.758;26.702;2022-12-18T03:32:48;99862.00;;;10.50
68743;BMP180;55725;42.758;26.702;2022-12-18T03:34:32;99869.00;;;10.50
68743;BMP180;55725;42.758;26.702;2022-12-18T03:36:13;99869.00;;;10.40
68743;BMP180;55725;42.758;26.702;2022-12-18T03:37:54;99860.00;;;10.40
68743;BMP180;55725;42.758;26.702;2022-12-18T03:39:35;99850.00;;;10.40
68743;BMP180;55725;42.758;26.702;2022-12-18T03:41:31;99855.00;;;10.40
68743;BMP180;55725;42.758;26.702;2022-12-18T03:43:17;99854.00;;;10.40
68743;BMP180;55725;42.758;26.702;2022-12-18T03:45:05;99855.00;;;10.40
68743;BMP180;55725;42.758;26.702;2022-12-18T03:48:47;99854.00;;;10.30
68743;BMP180;55725;42.758;26.702;2022-12-18T03:52:18;99869.00;;;10.30
68743;BMP180;55725;42.758;26.702;2022-12-18T03:54:02;99860.00;;;10.30
68743;BMP180;55725;42.758;26.702;2022-12-18T03:55:43;99856.00;;;10.30
68743;BMP180;55725;42.758;26.702;2022-12-18T03:57:26;99862.00;;;10.30
68743;BMP180;55725;42.758;26.702;2022-12-18T03:59:08;99875.00;;;10.30
68743;BMP180;55725;42.758;26.702;2022-12-18T04:00:50;99872.00;;;10.30
68743;BMP180;55725;42.758;26.702;2022-12-18T04:02:32;99890.00;;;10.30
68743;BMP180;55725;42.758;26.702;2022-12-18T04:04:14;99901.00;;;10.30
68743;BMP180;55725;42.758;26.702;2022-12-18T04:05:55;99918.00;;;10.30
68743;BMP180;55725;42.758;26.702;2022-12-18T04:07:36;99918.00;;;10.30
68743;BMP180;55725;42.758;26.702;2022-12-18T04:09:17;99928.00;;;10.30
68743;BMP180;55725;42.758;26.702;2022-12-18T04:10:59;99938.00;;;10.30
68743;BMP180;55725;42.758;26.702;2022-12-18T04:12:39;99946.00;;;10.40
68743;BMP180;55725;42.758;26.702;2022-12-18T04:14:20;99949.00;;;10.40
68743;BMP180;55725;42.758;26.702;2022-12-18T04:16:00;99958.00;;;10.30
68743;BMP180;55725;42.758;26.702;2022-12-18T04:17:43;99965.00;;;10.30
68743;BMP180;55725;42.758;26.702;2022-12-18T04:19:26;99969.00;;;10.30
68743;BMP180;55725;42.758;26.702;2022-12-18T04:21:07;99983.00;;;10.40
68743;BMP180;55725;42.758;26.702;2022-12-18T04:22:47;99990.00;;;10.40
68743;BMP180;55725;42.758;26.702;2022-12-18T04:24:27;99994.00;;;10.40
68743;BMP180;55725;42.758;26.702;2022-12-18T04:26:07;99985.00;;;10.30
68743;BMP180;55725;42.758;26.702;2022-12-18T04:27:48;99993.00;;;10.30
68743;BMP180;55725;42.758;26.702;2022-12-18T04:29:28;99993.00;;;10.40
68743;BMP180;55725;42.758;26.702;2022-12-18T04:31:08;99990.00;;;10.40
68743;BMP180;55725;42.758;26.702;2022-12-18T04:32:49;100002.00;;;10.40
68743;BMP180;55725;42.758;26.702;2022-12-18T04:34:29;99999.00;;;10.50
68743;BMP180;55725;42.758;26.702;2022-12-18T04:36:09;100005.00;;;10.50
68743;BMP180;55725;42.758;26.702;2022-12-18T04:37:50;100005.00;;;10.40
68743;BMP180;55725;42.758;26.702;2022-12-18T04:39:30;100003.00;;;10.40
68743;BMP180;55725;42.758;26.702;2022-12-18T04:41:10;100016.00;;;10.40
68743;BMP180;55725;42.758;26.702;2022-12-18T04:42:53;100007.00;;;10.30
68743;BMP180;55725;42.758;26.702;2022-12-18T04:44:33;100000.00;;;10.40
68743;BMP180;55725;42.758;26.702;2022-12-18T04:46:14;100014.00;;;10.50
68743;BMP180;55725;42.758;26.702;2022-12-18T04:47:54;100006.00;;;10.30
68743;BMP180;55725;42.758;26.702;2022-12-18T04:49:36;100009.00;;;10.30
68743;BMP180;55725;42.758;26.702;2022-12-18T04:51:17;100005.00;;;10.50
68743;BMP180;55725;42.758;26.702;2022-12-18T04:52:57;99995.00;;;10.30
68743;BMP180;55725;42.758;26.702;2022-12-18T04:54:37;100007.00;;;10.40
68743;BMP180;55725;42.758;26.702;2022-12-18T04:56:18;100023.00;;;10.30
68743;BMP180;55725;42.758;26.702;2022-12-18T04:57:58;100005.00;;;10.20
68743;BMP180;55725;42.758;26.702;2022-12-18T04:59:38;100016.00;;;10.20
68743;BMP180;55725;42.758;26.702;2022-12-18T05:01:18;100015.00;;;10.20
68743;BMP180;55725;42.758;26.702;2022-12-18T05:03:00;100012.00;;;10.20
68743;BMP180;55725;42.758;26.702;2022-12-18T05:04:40;100024.00;;;10.20
68743;BMP180;55725;42.758;26.702;2022-12-18T05:06:21;100031.00;;;10.30
68743;BMP180;55725;42.758;26.702;2022-12-18T05:08:01;100035.00;;;10.20
68743;BMP180;55725;42.758;26.702;2022-12-18T05:09:41;100044.00;;;10.20
68743;BMP180;55725;42.758;26.702;2022-12-18T05:11:22;100043.00;;;10.20
68743;BMP180;55725;42.758;26.702;2022-12-18T05:13:02;100051.00;;;10.20
68743;BMP180;55725;42.758;26.702;2022-12-18T05:14:42;100041.00;;;10.20
68743;BMP180;55725;42.758;26.702;2022-12-18T05:16:23;100061.00;;;10.10
68743;BMP180;55725;42.758;26.702;2022-12-18T05:18:03;100055.00;;;10.10
68743;BMP180;55725;42.758;26.702;2022-12-18T05:19:43;100044.00;;;10.10
68743;BMP180;55725;42.758;26.702;2022-12-18T05:21:24;100050.00;;;10.10
68743;BMP180;55725;42.758;26.702;2022-12-18T05:23:04;100049.00;;;10.10
68743;BMP180;55725;42.758;26.702;2022-12-18T05:24:44;100051.00;;;10.10
68743;BMP180;55725;42.758;26.702;2022-12-18T05:26:25;100049.00;;;10.10
68743;BMP180;55725;42.758;26.702;2022-12-18T05:28:05;100048.00;;;10.10
68743;BMP180;55725;42.758;26.702;2022-12-18T05:29:45;100047.00;;;10.00
68743;BMP180;55725;42.758;26.702;2022-12-18T05:31:25;100042.00;;;10.00
68743;BMP180;55725;42.758;26.702;2022-12-18T05:33:06;100031.00;;;10.00
68743;BMP180;55725;42.758;26.702;2022-12-18T05:34:46;100021.00;;;10.00
68743;BMP180;55725;42.758;26.702;2022-12-18T05:36:26;100022.00;;;10.00
68743;BMP180;55725;42.758;26.702;2022-12-18T05:38:07;100028.00;;;9.90
68743;BMP180;55725;42.758;26.702;2022-12-18T05:39:47;100017.00;;;9.90
68743;BMP180;55725;42.758;26.702;2022-12-18T05:41:27;100044.00;;;9.90
68743;BMP180;55725;42.758;26.702;2022-12-18T05:43:08;100033.00;;;9.90
68743;BMP180;55725;42.758;26.702;2022-12-18T05:44:49;100026.00;;;9.90
68743;BMP180;55725;42.758;26.702;2022-12-18T05:46:29;100041.00;;;9.90
68743;BMP180;55725;42.758;26.702;2022-12-18T05:48:09;100043.00;;;9.80
68743;BMP180;55725;42.758;26.702;2022-12-18T05:49:50;100036.00;;;9.70
68743;BMP180;55725;42.758;26.702;2022-12-18T05:51:30;100038.00;;;9.70
68743;BMP180;55725;42.758;26.702;2022-12-18T05:53:12;100058.00;;;9.70
68743;BMP180;55725;42.758;26.702;2022-12-18T05:54:52;100046.00;;;9.70
68743;BMP180;55725;42.758;26.702;2022-12-18T05:56:33;100070.00;;;9.70
68743;BMP180;55725;42.758;26.702;2022-12-18T05:58:14;100030.00;;;9.60
68743;BMP180;55725;42.758;26.702;2022-12-18T05:59:54;100074.00;;;9.50
68743;BMP180;55725;42.758;26.702;2022-12-18T06:01:34;100067.00;;;9.50
68743;BMP180;55725;42.758;26.702;2022-12-18T06:03:15;100078.00;;;9.40
68743;BMP180;55725;42.758;26.702;2022-12-18T06:04:55;100063.00;;;9.40
68743;BMP180;55725;42.758;26.702;2022-12-18T06:06:35;100076.00;;;9.30
68743;BMP180;55725;42.758;26.702;2022-12-18T06:08:16;100098.00;;;9.30
68743;BMP180;55725;42.758;26.702;2022-12-18T06:09:57;100097.00;;;9.30
68743;BMP180;55725;42.758;26.702;2022-12-18T06:11:37;100087.00;;;9.40
68743;BMP180;55725;42.758;26.702;2022-12-18T06:13:19;100087.00;;;9.30
68743;BMP180;55725;42.758;26.702;2022-12-18T06:14:59;100113.00;;;9.20
68743;BMP180;55725;42.758;26.702;2022-12-18T06:16:40;100113.00;;;9.20
68743;BMP180;55725;42.758;26.702;2022-12-18T06:18:20;100114.00;;;9.10
68743;BMP180;55725;42.758;26.702;2022-12-18T06:20:01;100130.00;;;9.00
68743;BMP180;55725;42.758;26.702;2022-12-18T06:21:41;100114.00;;;9.00
68743;BMP180;55725;42.758;26.702;2022-12-18T06:23:22;100109.00;;;9.00
68743;BMP180;55725;42.758;26.702;2022-12-18T06:25:02;100141.00;;;8.90
68743;BMP180;55725;42.758;26.702;2022-12-18T06:26:42;100125.00;;;8.90
68743;BMP180;55725;42.758;26.702;2022-12-18T06:28:23;100142.00;;;8.90
68743;BMP180;55725;42.758;26.702;2022-12-18T06:30:04;100131.00;;;9.00
68743;BMP180;55725;42.758;26.702;2022-12-18T06:31:45;100151.00;;;8.90
68743;BMP180;55725;42.758;26.702;2022-12-18T06:33:26;100147.00;;;8.90
68743;BMP180;55725;42.758;26.702;2022-12-18T06:35:07;100140.00;;;8.90
68743;BMP180;55725;42.758;26.702;2022-12-18T06:36:47;100163.00;;;8.90
68743;BMP180;55725;42.758;26.702;2022-12-18T06:38:27;100155.00;;;8.80
68743;BMP180;55725;42.758;26.702;2022-12-18T06:40:08;100155.00;;;8.80
68743;BMP180;55725;42.758;26.702;2022-12-18T06:41:48;100174.00;;;8.80
68743;BMP180;55725;42.758;26.702;2022-12-18T06:43:28;100147.00;;;8.80
68743;BMP180;55725;42.758;26.702;2022-12-18T06:45:09;100164.00;;;8.80
68743;BMP180;55725;42.758;26.702;2022-12-18T06:46:49;100151.00;;;8.80
68743;BMP180;55725;42.758;26.702;2022-12-18T06:48:30;100162.00;;;8.90
68743;BMP180;55725;42.758;26.702;2022-12-18T06:50:10;100159.00;;;8.80
68743;BMP180;55725;42.758;26.702;2022-12-18T06:51:51;100155.00;;;8.70
68743;BMP180;55725;42.758;26.702;2022-12-18T06:53:32;100162.00;;;8.70
68743;BMP180;55725;42.758;26.702;2022-12-18T06:55:12;100156.00;;;8.80
68743;BMP180;55725;42.758;26.702;2022-12-18T06:56:52;100181.00;;;8.70
68743;BMP180;55725;42.758;26.702;2022-12-18T06:58:33;100175.00;;;8.80
68743;BMP180;55725;42.758;26.702;2022-12-18T07:00:13;100177.00;;;8.80
68743;BMP180;55725;42.758;26.702;2022-12-18T07:01:54;100185.00;;;8.90
68743;BMP180;55725;42.758;26.702;2022-12-18T07:03:34;100161.00;;;8.80
68743;BMP180;55725;42.758;26.702;2022-12-18T07:05:14;100203.00;;;8.90
68743;BMP180;55725;42.758;26.702;2022-12-18T07:06:55;100204.00;;;8.90
68743;BMP180;55725;42.758;26.702;2022-12-18T07:08:35;100215.00;;;8.80
68743;BMP180;55725;42.758;26.702;2022-12-18T07:10:15;100215.00;;;8.90
68743;BMP180;55725;42.758;26.702;2022-12-18T07:11:56;100225.00;;;8.90
68743;BMP180;55725;42.758;26.702;2022-12-18T07:13:36;100216.00;;;8.90
68743;BMP180;55725;42.758;26.702;2022-12-18T07:15:16;100202.00;;;8.90
68743;BMP180;55725;42.758;26.702;2022-12-18T07:16:56;100226.00;;;8.80
68743;BMP180;55725;42.758;26.702;2022-12-18T07:18:37;100216.00;;;8.80
68743;BMP180;55725;42.758;26.702;2022-12-18T07:20:17;100222.00;;;8.90
68743;BMP180;55725;42.758;26.702;2022-12-18T07:21:57;100221.00;;;8.90
68743;BMP180;55725;42.758;26.702;2022-12-18T07:23:38;100227.00;;;8.90
68743;BMP180;55725;42.758;26.702;2022-12-18T07:25:18;100234.00;;;8.80
68743;BMP180;55725;42.758;26.702;2022-12-18T07:26:58;100226.00;;;8.90
68743;BMP180;55725;42.758;26.702;2022-12-18T07:28:39;100239.00;;;8.90
68743;BMP180;55725;42.758;26.702;2022-12-18T07:30:20;100214.00;;;8.90
68743;BMP180;55725;42.758;26.702;2022-12-18T07:32:00;100221.00;;;8.80
68743;BMP180;55725;42.758;26.702;2022-12-18T07:33:43;100233.00;;;8.80
68743;BMP180;55725;42.758;26.702;2022-12-18T07:35:24;100220.00;;;8.80
68743;BMP180;55725;42.758;26.702;2022-12-18T07:37:04;100245.00;;;8.70
68743;BMP180;55725;42.758;26.702;2022-12-18T07:38:46;100237.00;;;8.60
68743;BMP180;55725;42.758;26.702;2022-12-18T07:40:26;100220.00;;;8.80
68743;BMP180;55725;42.758;26.702;2022-12-18T07:42:07;100242.00;;;8.70
68743;BMP180;55725;42.758;26.702;2022-12-18T07:44:06;100245.00;;;8.70
68743;BMP180;55725;42.758;26.702;2022-12-18T07:45:48;100246.00;;;8.80
68743;BMP180;55725;42.758;26.702;2022-12-18T07:47:29;100241.00;;;8.70
68743;BMP180;55725;42.758;26.702;2022-12-18T07:49:09;100264.00;;;8.80
68743;BMP180;55725;42.758;26.702;2022-12-18T07:50:49;100269.00;;;8.70
68743;BMP180;55725;42.758;26.702;2022-12-18T07:52:29;100255.00;;;8.70
68743;BMP180;55725;42.758;26.702;2022-12-18T07:54:10;100271.00;;;8.80
68743;BMP180;55725;42.758;26.702;2022-12-18T07:55:54;100265.00;;;8.80
68743;BMP180;55725;42.758;26.702;2022-12-18T07:57:35;100266.00;;;8.80
68743;BMP180;55725;42.758;26.702;2022-12-18T07:59:15;100273.00;;;8.70
68743;BMP180;55725;42.758;26.702;2022-12-18T08:01:02;100274.00;;;8.80
68743;BMP180;55725;42.758;26.702;2022-12-18T08:02:42;100250.00;;;8.80
68743;BMP180;55725;42.758;26.702;2022-12-18T08:04:23;100286.00;;;8.80
68743;BMP180;55725;42.758;26.702;2022-12-18T08:06:04;100264.00;;;8.70
68743;BMP180;55725;42.758;26.702;2022-12-18T08:07:44;100261.00;;;8.80
68743;BMP180;55725;42.758;26.702;2022-12-18T08:09:25;100283.00;;;8.70
68743;BMP180;55725;42.758;26.702;2022-12-18T08:11:05;100268.00;;;8.60
68743;BMP180;55725;42.758;26.702;2022-12-18T08:12:45;100273.00;;;8.70
68743;BMP180;55725;42.758;26.702;2022-12-18T08:14:28;100272.00;;;8.80
68743;BMP180;55725;42.758;26.702;2022-12-18T08:16:09;100282.00;;;8.70
68743;BMP180;55725;42.758;26.702;2022-12-18T08:17:49;100281.00;;;8.90
68743;BMP180;55725;42.758;26.702;2022-12-18T08:19:29;100278.00;;;8.70
68743;BMP180;55725;42.758;26.702;2022-12-18T08:21:10;100288.00;;;8.80
68743;BMP180;55725;42.758;26.702;2022-12-18T08:22:50;100282.00;;;8.80
68743;BMP180;55725;42.758;26.702;2022-12-18T08:24:31;100274.00;;;8.90
68743;BMP180;55725;42.758;26.702;2022-12-18T08:26:11;100287.00;;;8.80
68743;BMP180;55725;42.758;26.702;2022-12-18T08:27:51;100285.00;;;8.70
68743;BMP180;55725;42.758;26.702;2022-12-18T08:29:32;100288.00;;;8.80
68743;BMP180;55725;42.758;26.702;2022-12-18T08:31:13;100302.00;;;8.90
68743;BMP180;55725;42.758;26.702;2022-12-18T08:32:54;100289.00;;;8.80
68743;BMP180;55725;42.758;26.702;2022-12-18T08:34:34;100302.00;;;8.80
68743;BMP180;55725;42.758;26.702;2022-12-18T08:36:14;100301.00;;;8.90
68743;BMP180;55725;42.758;26.702;2022-12-18T08:37:54;100301.00;;;8.90
68743;BMP180;55725;42.758;26.702;2022-12-18T08:39:35;100310.00;;;8.90
68743;BMP180;55725;42.758;26.702;2022-12-18T08:41:16;100298.00;;;8.70
68743;BMP180;55725;42.758;26.702;2022-12-18T08:42:56;100307.00;;;8.60
68743;BMP180;55725;42.758;26.702;2022-12-18T08:44:55;100292.00;;;8.70
68743;BMP180;55725;42.758;26.702;2022-12-18T08:46:37;100292.00;;;8.70
68743;BMP180;55725;42.758;26.702;2022-12-18T08:48:17;100305.00;;;8.70
68743;BMP180;55725;42.758;26.702;2022-12-18T08:49:58;100296.00;;;8.60
68743;BMP180;55725;42.758;26.702;2022-12-18T08:51:38;100298.00;;;8.60
68743;BMP180;55725;42.758;26.702;2022-12-18T08:53:19;100313.00;;;8.80
68743;BMP180;55725;42.758;26.702;2022-12-18T08:54:59;100331.00;;;8.70
68743;BMP180;55725;42.758;26.702;2022-12-18T08:56:39;100323.00;;;8.70
68743;BMP180;55725;42.758;26.702;2022-12-18T08:58:19;100332.00;;;8.70
68743;BMP180;55725;42.758;26.702;2022-12-18T09:00:00;100334.00;;;8.80
68743;BMP180;55725;42.758;26.702;2022-12-18T09:01:40;100335.00;;;8.70
68743;BMP180;55725;42.758;26.702;2022-12-18T09:03:21;100335.00;;;8.60
68743;BMP180;55725;42.758;26.702;2022-12-18T09:05:02;100341.00;;;8.60
68743;BMP180;55725;42.758;26.702;2022-12-18T09:06:42;100371.00;;;8.70
68743;BMP180;55725;42.758;26.702;2022-12-18T09:08:23;100379.00;;;8.60
68743;BMP180;55725;42.758;26.702;2022-12-18T09:10:03;100373.00;;;8.80
68743;BMP180;55725;42.758;26.702;2022-12-18T09:11:44;100378.00;;;8.40
68743;BMP180;55725;42.758;26.702;2022-12-18T09:13:24;100390.00;;;8.30
68743;BMP180;55725;42.758;26.702;2022-12-18T09:15:05;100382.00;;;8.00
68743;BMP180;55725;42.758;26.702;2022-12-18T09:16:45;100384.00;;;7.80
68743;BMP180;55725;42.758;26.702;2022-12-18T09:18:26;100395.00;;;7.90
68743;BMP180;55725;42.758;26.702;2022-12-18T09:20:06;100386.00;;;7.80
68743;BMP180;55725;42.758;26.702;2022-12-18T09:21:46;100395.00;;;7.60
68743;BMP180;55725;42.758;26.702;2022-12-18T09:23:27;100391.00;;;7.70
68743;BMP180;55725;42.758;26.702;2022-12-18T09:25:07;100385.00;;;7.80
68743;BMP180;55725;42.758;26.702;2022-12-18T09:26:47;100396.00;;;7.50
68743;BMP180;55725;42.758;26.702;2022-12-18T09:28:28;100389.00;;;7.60
68743;BMP180;55725;42.758;26.702;2022-12-18T09:30:08;100386.00;;;7.70
68743;BMP180;55725;42.758;26.702;2022-12-18T09:31:49;100385.00;;;7.60
68743;BMP180;55725;42.758;26.702;2022-12-18T09:33:29;100386.00;;;7.70
68743;BMP180;55725;42.758;26.702;2022-12-18T09:35:09;100400.00;;;7.60
68743;BMP180;55725;42.758;26.702;2022-12-18T09:36:50;100398.00;;;7.70
68743;BMP180;55725;42.758;26.702;2022-12-18T09:38:30;100399.00;;;7.70
68743;BMP180;55725;42.758;26.702;2022-12-18T09:40:14;100402.00;;;7.30
68743;BMP180;55725;42.758;26.702;2022-12-18T09:41:57;100395.00;;;7.50
68743;BMP180;55725;42.758;26.702;2022-12-18T09:43:48;100400.00;;;8.10
68743;BMP180;55725;42.758;26.702;2022-12-18T09:45:40;100392.00;;;8.10
68743;BMP180;55725;42.758;26.702;2022-12-18T09:47:23;100401.00;;;7.90
68743;BMP180;55725;42.758;26.702;2022-12-18T09:49:06;100395.00;;;8.00
68743;BMP180;55725;42.758;26.702;2022-12-18T09:50:50;100399.00;;;7.80
68743;BMP180;55725;42.758;26.702;2022-12-18T09:52:35;100399.00;;;7.70
68743;BMP180;55725;42.758;26.702;2022-12-18T09:54:19;100406.00;;;7.90
68743;BMP180;55725;42.758;26.702;2022-12-18T09:56:00;100408.00;;;8.00
68743;BMP180;55725;42.758;26.702;2022-12-18T09:57:49;100401.00;;;8.30
68743;BMP180;55725;42.758;26.702;2022-12-18T09:59:36;100404.00;;;8.50
68743;BMP180;55725;42.758;26.702;2022-12-18T10:01:18;100403.00;;;8.50
68743;BMP180;55725;42.758;26.702;2022-12-18T10:03:02;100393.00;;;8.50